CYYZ

Lester B Pearson International Airport

Toronto, , Canada
METAR CYYZ 201600Z 29011G18KT 15SM BKN050 BKN072 11/M00 A2966 RMK SC7AC1 AC TR SLP048
Observed Flight Rules
Oct-20 @ 16:00 UTC (an hour ago) Visual Flight Rules
Wind Visibility Clouds
290° at 11 knots
 Gusting to 18 knots
15 miles
  • Broken at 5,000' AGL
  • Broken at 7,200' AGL
Temperatures Readings
Current 11°C / 52°F
Dewpoint 0°C / 32°F
Humidity 47%
Altimeter 29.66" Hg
Pressure 1004.8 hPa
Elevation 173
METAR CYYZ 201600Z 29011G18KT 15SM BKN050 BKN072 11/M00 A2966 RMK SC7AC1 AC TR SLP048
Observed Flight Rules
Oct-20 @ 16:00 UTC
(an hour ago)
VFR
Wind Visibility
290° at 11 knots
 Gusting to 18 knots
15 miles
Clouds
  • Broken at 5,000' AGL
  • Broken at 7,200' AGL
Temperature Dewpoint
11°C / 52°F 0°C / 32°F
Humidity Altimeter Pressure
47% 29.66" Hg 1004.8 hPa